Jackson, TN (38305)

3:42 AM CDT on October 24, 2014 (GMT -0500)
North Park | Change Station
CLOSE
Current Station
Personal Weather Station
Location: Jackson, TN
Elevation: 423 ft
Nearby Weather Stations

Elev 423 ft 35.71 °N, 88.82 °W | Updated 2 minutes ago

Mostly Cloudy
Mostly Cloudy
45.3 °F
Feels Like 45 °F
N
0.0
Wind Variable Wind from West
Gusts 0.0 mph

Today
High -- | Low -- °F
--% Chance of Precip.
Yesterday
High -- | Low -- °F
Precip. -- in
7:09 AM 6:08 PM
New Moon, 0% visible
Pressure 30.12 in
Visibility 10.0 miles
Clouds Mostly Cloudy 10000 ft
Windchill 45 °F
Dew Point 44 °F
Humidity 95%
Rainfall 0.00 in
Snow Depth Not available.
UV 0 out of 12
Pollen .60 out of 12
Air Quality Not available.
Flu Activity Sporadic
METAR KMKL 240753Z AUTO 00000KT 10SM BKN100 08/06 A3013 RMK AO2 SLP200 T00780061

More Conditions Fewer Conditions

Pressure 30.12 in
Visibility 10.0 miles
Clouds Mostly Cloudy 10000 ft
Windchill 45 °F
Dew Point 44 °F
Humidity 95%
Rainfall 0.00 in
Snow Depth Not available.
UV 0 out of 12
Pollen .60 out of 12
Air Quality Not available.
Flu Activity Sporadic
METAR KMKL 240753Z AUTO 00000KT 10SM BKN100 08/06 A3013 RMK AO2 SLP200 T00780061

More Conditions Fewer Conditions

10-Day Weather Forecast

Almanac

Astronomy

Oct. 24, 2014 Rise Set
Actual Time 7:09 AM CDT 6:08 PM CDT
Civil Twilight 6:43 AM CDT 6:34 PM CDT
Nautical Twilight 6:13 AM CDT 7:04 PM CDT
Astronomical Twilight 5:44 AM CDT 7:34 PM CDT
Moon 7:47 AM CDT 6:50 PM CDT
Length of Visible Light 11h 50m
Length of Day
10h 58m
Tomorrow will be 2m 4s shorter.
New Moon, 0% of the Moon is Illuminated
Today
New Moon
Oct 30
First Quarter
Nov 6
Full
Nov 14
Last Quarter
Nov 22
New

Today's Extremes

State Highs State Lows

Community

WunderPhotos

Upload Photos

1,764,511 photos uploaded!

WunderBlogs® & News

Nearby

Snow Depth

Station Depth Elevation
No new snow has been reported.

Earthquake Activity

City Distance Mag. Time & Date
No recent earthquake activity has been reported nearby.
Minimum magnitude displayed is 2.5.

Coastal Water Temperatures

Place Temperature
No Stations Reporting

Nearby Weather Stations